Time;durP1;ratioP1;P1;durP2;ratioP2;P2;SDS_P1;SDS_P2;PMS_P1;PMS_P2;Temp;Humidity;BMP_temperature;BMP_pressure;BME280_temperature;BME280_humidity;BME280_pressure;Samples;Min_cycle;Max_cycle;Signal;HPM_P1;HPM_P2
2022/02/10 00:21:00;;;;;;;65.18;20.00;;;8.20;99.90;;;;;;6243403;22;20023;-82
2022/02/10 00:36:46;;;;;;;65.22;18.60;;;7.90;99.90;;;;;;6217802;22;20030;-76
2022/02/10 00:42:00;;;;;;;29.67;13.23;;;7.90;99.90;;;;;;6221553;22;20530;-77
2022/02/10 00:44:26;;;;;;;42.70;16.65;;;7.90;99.90;;;;;;6243289;22;20102;-76
2022/02/10 00:46:51;;;;;;;43.95;15.77;;;7.90;99.90;;;;;;6192749;22;20525;-76
2022/02/10 00:49:17;;;;;;;83.35;19.42;;;7.80;99.90;;;;;;6217369;22;20026;-76
2022/02/10 00:51:43;;;;;;;27.88;12.25;;;7.80;99.90;;;;;;6243142;22;20503;-76
2022/02/10 00:54:10;;;;;;;27.33;11.90;;;7.90;99.90;;;;;;6216414;22;20029;-76
2022/02/10 00:56:36;;;;;;;31.95;13.02;;;7.80;99.90;;;;;;6193723;22;20026;-77
2022/02/10 00:59:25;;;;;;;60.50;16.55;;;7.90;99.90;;;;;;6193066;22;20008;-77
2022/02/10 01:29:54;;;;;;;21.75;9.55;;;7.80;99.90;;;;;;6221369;22;20019;-77
2022/02/10 01:31:54;;;;;;;20.13;9.20;;;7.80;99.90;;;;;;6206178;22;20321;-77
2022/02/10 01:34:20;;;;;;;24.38;9.82;;;7.80;99.90;;;;;;6217375;22;20111;-77
2022/02/10 01:36:46;;;;;;;37.70;10.70;;;7.80;99.90;;;;;;6192405;22;20042;-77
2022/02/10 01:39:12;;;;;;;62.50;13.40;;;7.80;99.90;;;;;;6191315;22;20903;-77
2022/02/10 02:03:35;;;;;;;104.05;39.45;;;8.10;99.90;;;;;;6240024;22;20023;-77
2022/02/10 02:06:06;;;;;;;103.05;39.45;;;8.10;99.90;;;;;;6242566;22;20047;-77
2022/02/10 02:08:36;;;;;;;97.75;39.97;;;8.20;99.90;;;;;;6193456;22;20134;-78
2022/02/10 02:11:02;;;;;;;120.63;42.90;;;8.20;99.90;;;;;;6192877;22;20015;-78
2022/02/10 02:13:29;;;;;;;118.25;31.98;;;8.20;99.90;;;;;;6167182;22;20023;-76
2022/02/10 02:15:55;;;;;;;48.38;18.63;;;8.20;99.90;;;;;;6217438;22;20021;-77
2022/02/10 02:18:21;;;;;;;51.50;17.23;;;8.20;99.90;;;;;;6216241;22;20330;-76
2022/02/10 02:20:50;;;;;;;38.20;13.65;;;8.10;99.90;;;;;;6217243;22;20015;-76
2022/02/10 02:23:19;;;;;;;35.80;13.00;;;8.00;99.90;;;;;;6241996;22;20016;-76
2022/02/10 02:25:48;;;;;;;45.28;12.82;;;7.90;99.90;;;;;;6217372;22;20016;-76
2022/02/10 02:28:14;;;;;;;38.20;12.57;;;7.90;99.90;;;;;;6192969;22;20034;-77
2022/02/10 02:30:54;;;;;;;51.72;13.80;;;7.80;99.90;;;;;;6193275;22;20019;-77
2022/02/10 03:06:35;;;;;;;34.75;12.07;;;7.50;99.90;;;;;;6242182;22;20180;-75
2022/02/10 03:09:06;;;;;;;18.88;7.88;;;7.50;99.90;;;;;;6197314;22;20016;-77
2022/02/10 03:11:35;;;;;;;19.90;7.43;;;7.50;99.90;;;;;;6194490;22;20613;-76
2022/02/10 03:14:09;;;;;;;15.68;7.35;;;7.40;99.90;;;;;;6218005;22;20019;-77
2022/02/10 04:12:07;;;;;;;15.55;9.27;;;7.00;99.90;;;;;;6200665;22;20051;-78
2022/02/10 04:14:54;;;;;;;19.83;8.95;;;7.00;99.90;;;;;;6199657;22;20015;-78
2022/02/10 04:55:21;;;;;;;23.20;11.00;;;7.00;99.90;;;;;;6242375;22;20069;-77
2022/02/10 05:03:32;;;;;;;23.90;12.10;;;7.00;99.90;;;;;;6219888;22;20030;-77
2022/02/10 05:32:57;;;;;;;26.67;13.18;;;6.90;99.90;;;;;;6222284;22;20055;-77
2022/02/10 05:38:12;;;;;;;29.92;13.48;;;6.90;99.90;;;;;;6242876;22;20077;-77
2022/02/10 05:46:29;;;;;;;30.70;14.75;;;6.80;99.90;;;;;;6192708;22;20107;-78
2022/02/10 07:06:24;;;;;;;24.65;12.55;;;6.60;99.90;;;;;;6222623;22;20106;-84
2022/02/10 07:11:53;;;;;;;20.95;12.38;;;6.50;99.90;;;;;;6242276;22;20035;-84
2022/02/10 07:49:48;;;;;;;25.23;13.23;;;6.50;99.90;;;;;;6242769;22;20460;-83
2022/02/10 08:49:54;;;;;;;20.15;12.55;;;6.50;99.90;;;;;;6200947;22;20399;-84
2022/02/10 08:53:25;;;;;;;20.30;12.38;;;6.60;99.90;;;;;;6198031;22;20015;-84
2022/02/10 08:58:25;;;;;;;20.45;11.98;;;6.70;99.90;;;;;;6216937;22;20077;-84
2022/02/10 09:03:50;;;;;;;19.75;11.30;;;6.80;99.90;;;;;;6117389;22;20021;-84
2022/02/10 09:12:11;;;;;;;20.88;11.40;;;6.90;99.90;;;;;;6217990;22;20062;-84
2022/02/10 10:00:13;;;;;;;10.68;4.28;;;7.20;99.90;;;;;;6216734;22;20015;-85
2022/02/10 10:02:37;;;;;;;11.40;4.28;;;7.20;99.90;;;;;;6235315;22;20027;-86
2022/02/10 10:21:07;;;;;;;13.30;4.28;;;7.30;99.90;;;;;;6243486;22;20030;-85
2022/02/10 10:50:50;;;;;;;10.02;2.53;;;7.80;99.90;;;;;;6236965;23;20020;-80
2022/02/10 11:42:25;;;;;;;10.82;1.80;;;8.30;99.90;;;;;;6238152;23;20023;-80
2022/02/10 12:29:18;;;;;;;11.50;2.40;;;8.20;99.90;;;;;;6237804;23;20043;-79
2022/02/10 13:35:11;;;;;;;9.15;2.33;;;7.90;99.90;;;;;;6242623;22;20520;-81
2022/02/10 14:18:25;;;;;;;10.10;2.40;;;7.60;99.90;;;;;;6218991;22;20024;-81
2022/02/10 14:26:24;;;;;;;13.57;2.65;;;7.50;99.90;;;;;;6241411;22;20023;-80
2022/02/10 14:28:50;;;;;;;7.65;2.60;;;7.50;99.90;;;;;;6240470;22;20347;-80
2022/02/10 14:31:16;;;;;;;8.20;2.05;;;7.50;99.90;;;;;;6214826;22;20118;-80
2022/02/10 14:33:44;;;;;;;13.27;2.72;;;7.50;99.90;;;;;;6188215;22;20024;-80
2022/02/10 14:36:22;;;;;;;12.98;2.15;;;7.50;99.90;;;;;;6216546;22;20015;-80
2022/02/10 15:22:06;;;;;;;15.18;3.30;;;7.10;99.90;;;;;;6197690;22;20024;-81
2022/02/10 16:18:47;;;;;;;14.55;2.95;;;6.30;99.90;;;;;;6190252;23;20067;-80
2022/02/10 16:21:17;;;;;;;10.57;2.42;;;6.20;99.90;;;;;;6187861;23;20020;-79
2022/02/10 16:23:44;;;;;;;11.20;2.20;;;6.20;99.90;;;;;;6210566;23;20020;-80
2022/02/10 16:26:15;;;;;;;10.48;2.50;;;6.20;99.90;;;;;;6234684;23;20095;-80
2022/02/10 16:28:42;;;;;;;11.18;2.40;;;6.20;99.90;;;;;;6235211;23;20027;-80
2022/02/10 16:31:13;;;;;;;17.55;2.97;;;6.10;99.90;;;;;;6212204;23;20018;-80
2022/02/10 16:33:42;;;;;;;10.63;2.27;;;6.10;99.90;;;;;;6211218;23;20030;-80
2022/02/10 16:36:16;;;;;;;11.57;2.70;;;6.10;99.90;;;;;;6209548;23;20016;-80
2022/02/10 16:38:46;;;;;;;12.67;2.60;;;6.10;99.90;;;;;;6238467;22;20043;-80
2022/02/10 16:41:13;;;;;;;15.15;2.47;;;6.10;99.90;;;;;;6217198;22;20015;-80
2022/02/10 16:43:40;;;;;;;9.23;1.87;;;6.00;99.90;;;;;;6193988;22;20019;-80
2022/02/10 16:46:08;;;;;;;15.13;2.35;;;6.00;99.90;;;;;;6216954;22;20471;-79
2022/02/10 16:48:34;;;;;;;10.40;3.10;;;6.00;99.90;;;;;;6218613;22;20026;-79
2022/02/10 16:51:01;;;;;;;13.67;2.57;;;6.00;99.90;;;;;;6194517;22;20767;-79
2022/02/10 16:53:34;;;;;;;12.05;2.38;;;6.00;99.90;;;;;;6221232;22;20016;-80
2022/02/10 16:56:09;;;;;;;13.93;3.17;;;5.90;99.90;;;;;;6220092;22;20019;-82
2022/02/10 16:58:45;;;;;;;11.93;2.77;;;5.90;99.90;;;;;;6218790;22;20015;-81
2022/02/10 17:27:38;;;;;;;15.37;2.80;;;5.50;99.90;;;;;;6218593;22;20028;-81
2022/02/10 17:44:15;;;;;;;14.20;2.73;;;5.30;99.90;;;;;;6240139;22;20030;-81
2022/02/10 17:52:10;;;;;;;13.63;2.83;;;5.20;99.90;;;;;;6220139;22;20405;-86
2022/02/10 17:54:36;;;;;;;13.40;3.05;;;5.20;99.90;;;;;;6239969;22;20020;-86
2022/02/10 17:57:02;;;;;;;15.87;4.97;;;5.10;99.90;;;;;;6164561;22;20467;-85
2022/02/10 17:59:28;;;;;;;15.23;3.57;;;5.10;99.90;;;;;;6238892;22;20020;-85
2022/02/10 18:01:54;;;;;;;14.53;3.50;;;5.00;99.90;;;;;;6189989;22;20465;-85
2022/02/10 18:04:23;;;;;;;13.90;3.17;;;5.00;99.90;;;;;;6215688;22;20089;-87
2022/02/10 18:06:55;;;;;;;13.53;3.67;;;5.00;99.90;;;;;;6243121;22;20028;-86
2022/02/10 18:14:34;;;;;;;17.47;3.97;;;5.00;99.90;;;;;;6241516;22;20020;-87
2022/02/10 18:17:10;;;;;;;15.47;3.17;;;5.00;99.90;;;;;;6243058;22;20030;-86
2022/02/10 18:19:50;;;;;;;11.97;3.37;;;5.00;99.90;;;;;;6216825;22;20098;-86
2022/02/10 18:25:02;;;;;;;14.47;3.90;;;5.00;99.90;;;;;;6238937;22;20059;-85
2022/02/10 18:27:39;;;;;;;16.70;4.07;;;5.00;99.90;;;;;;6189401;22;20026;-85
2022/02/10 18:30:21;;;;;;;14.07;3.37;;;5.00;99.90;;;;;;6189413;22;20107;-86
2022/02/10 19:08:18;;;;;;;14.70;4.23;;;4.80;99.90;;;;;;6234237;23;20070;-88
2022/02/10 19:10:46;;;;;;;15.77;4.60;;;4.90;99.90;;;;;;6235445;23;20020;-87
2022/02/10 19:13:16;;;;;;;17.40;4.50;;;4.80;99.90;;;;;;6211264;23;20070;-87
2022/02/10 19:15:42;;;;;;;13.05;4.28;;;4.80;99.90;;;;;;6212237;23;20018;-87
2022/02/10 19:18:09;;;;;;;20.37;5.53;;;4.80;99.90;;;;;;6212594;23;20089;-87
2022/02/10 19:20:37;;;;;;;14.60;3.80;;;4.80;99.90;;;;;;6212393;23;20020;-87
2022/02/10 19:23:05;;;;;;;13.47;3.77;;;4.90;99.90;;;;;;6212385;23;20475;-87
2022/02/10 19:25:33;;;;;;;16.63;3.67;;;4.90;99.90;;;;;;6236906;23;20016;-86
2022/02/10 19:27:59;;;;;;;19.87;4.10;;;4.90;99.90;;;;;;6237763;23;20051;-86
2022/02/10 19:30:45;;;;;;;20.50;4.33;;;4.90;99.90;;;;;;6239426;23;20330;-86
2022/02/10 19:33:14;;;;;;;16.63;3.83;;;4.90;99.90;;;;;;6213378;23;20020;-81
2022/02/10 19:35:46;;;;;;;13.10;3.53;;;4.90;99.90;;;;;;6234932;23;20020;-81
2022/02/10 19:38:24;;;;;;;15.17;3.87;;;4.80;99.90;;;;;;6239169;22;20099;-82
2022/02/10 19:40:54;;;;;;;16.77;3.87;;;4.80;99.90;;;;;;6243248;22;20027;-87
2022/02/10 19:43:21;;;;;;;16.37;3.33;;;4.80;99.90;;;;;;6218667;22;20314;-87
2022/02/10 19:45:50;;;;;;;16.27;3.47;;;4.80;99.90;;;;;;6214798;22;20020;-87
2022/02/10 19:48:17;;;;;;;19.53;3.73;;;4.80;99.90;;;;;;6188913;22;20317;-86
2022/02/10 19:50:43;;;;;;;16.10;3.37;;;4.70;99.90;;;;;;6216964;22;20318;-87
2022/02/10 19:53:11;;;;;;;14.30;2.77;;;4.70;99.90;;;;;;6192738;22;20110;-87
2022/02/10 19:55:41;;;;;;;16.30;3.50;;;4.70;99.90;;;;;;6192311;22;20051;-85
2022/02/10 19:58:11;;;;;;;14.77;3.40;;;4.70;99.90;;;;;;6242681;22;20119;-87
2022/02/10 20:00:41;;;;;;;13.60;3.28;;;4.70;99.90;;;;;;6169559;22;20022;-86
2022/02/10 20:03:14;;;;;;;12.20;3.70;;;4.70;99.90;;;;;;6217656;22;20015;-86
2022/02/10 20:05:45;;;;;;;10.83;3.07;;;4.60;99.90;;;;;;6215902;22;20405;-85
2022/02/10 20:08:14;;;;;;;13.10;3.17;;;4.60;99.90;;;;;;6217371;22;20178;-86
2022/02/10 20:10:40;;;;;;;15.97;3.70;;;4.50;99.90;;;;;;6215761;22;20023;-86
2022/02/10 20:13:06;;;;;;;13.80;3.07;;;4.50;99.90;;;;;;6218746;22;20399;-86
2022/02/10 20:15:34;;;;;;;14.33;3.07;;;4.50;99.90;;;;;;6218474;22;20391;-86
2022/02/10 20:18:05;;;;;;;15.07;2.90;;;4.50;99.90;;;;;;6217246;22;20023;-81
2022/02/10 20:20:31;;;;;;;13.13;3.30;;;4.50;99.90;;;;;;6218901;22;20393;-81
2022/02/10 20:23:00;;;;;;;14.07;2.97;;;4.50;99.90;;;;;;6168785;22;20024;-81
2022/02/10 20:25:26;;;;;;;15.57;3.30;;;4.50;99.90;;;;;;6191997;22;20456;-81
2022/02/10 20:27:51;;;;;;;13.77;3.10;;;4.40;99.90;;;;;;6192589;22;20076;-81
2022/02/10 20:30:17;;;;;;;18.97;4.10;;;4.50;99.90;;;;;;6194298;22;20235;-81
2022/02/10 20:32:43;;;;;;;13.10;3.13;;;4.50;99.90;;;;;;6192209;22;20023;-81
2022/02/10 20:35:11;;;;;;;17.83;3.37;;;4.40;99.90;;;;;;6216741;22;20024;-81
2022/02/10 20:37:37;;;;;;;14.00;3.57;;;4.40;99.90;;;;;;6191541;22;20020;-80
2022/02/10 20:40:07;;;;;;;11.80;3.43;;;4.40;99.90;;;;;;6165334;22;20301;-81
2022/02/10 20:42:34;;;;;;;16.63;3.65;;;4.40;99.90;;;;;;6191366;22;20026;-81
2022/02/10 20:45:03;;;;;;;16.73;3.83;;;4.30;99.90;;;;;;6216836;22;20478;-81
2022/02/10 20:47:29;;;;;;;14.13;3.07;;;4.30;99.90;;;;;;6214860;22;20475;-79
2022/02/10 20:49:55;;;;;;;16.27;4.10;;;4.30;99.90;;;;;;6191377;22;20016;-80
2022/02/10 20:52:21;;;;;;;14.07;3.77;;;4.30;99.90;;;;;;6216256;22;20126;-80
2022/02/10 20:54:46;;;;;;;14.47;3.40;;;4.30;99.90;;;;;;6217266;22;20023;-81
2022/02/10 20:57:13;;;;;;;16.20;3.63;;;4.30;99.90;;;;;;6244220;22;20019;-81
2022/02/10 20:59:42;;;;;;;18.53;4.07;;;4.30;99.90;;;;;;6217404;22;20016;-81
2022/02/10 21:02:15;;;;;;;13.17;3.33;;;4.30;99.90;;;;;;6195207;22;20020;-81
2022/02/10 21:04:50;;;;;;;21.40;4.53;;;4.30;99.90;;;;;;6244394;22;20073;-81
2022/02/10 21:09:54;;;;;;;16.90;3.13;;;4.20;99.90;;;;;;6243574;22;20058;-81
2022/02/10 21:12:20;;;;;;;12.17;2.60;;;4.20;99.90;;;;;;6197150;22;20383;-81
2022/02/10 21:14:47;;;;;;;13.43;3.27;;;4.20;99.90;;;;;;6219034;22;20030;-81
2022/02/10 21:17:19;;;;;;;14.07;3.27;;;4.20;99.90;;;;;;6219508;22;20019;-81
2022/02/10 21:19:48;;;;;;;14.63;2.90;;;4.20;99.90;;;;;;6193907;22;20348;-81
2022/02/10 21:22:20;;;;;;;15.23;2.97;;;4.30;99.90;;;;;;6192455;22;20022;-80
2022/02/10 21:27:47;;;;;;;15.73;3.47;;;4.20;99.90;;;;;;6154139;22;20490;-79
2022/02/10 21:30:15;;;;;;;12.13;3.37;;;4.20;99.90;;;;;;6191784;22;20051;-80
2022/02/10 21:32:48;;;;;;;14.67;3.33;;;4.20;99.90;;;;;;6189256;22;20023;-80
2022/02/10 21:37:53;;;;;;;13.43;3.40;;;4.10;99.90;;;;;;6238628;22;20024;-79
2022/02/10 21:47:03;;;;;;;13.75;2.97;;;4.10;99.90;;;;;;6216948;22;20028;-80
2022/02/10 22:09:30;;;;;;;13.33;3.10;;;3.80;99.90;;;;;;6215702;22;20028;-80
2022/02/10 22:20:30;;;;;;;13.17;2.93;;;3.70;99.90;;;;;;6240878;22;20419;-80
2022/02/10 22:23:14;;;;;;;15.27;3.40;;;3.70;99.90;;;;;;6191501;22;20019;-80
2022/02/10 22:25:40;;;;;;;10.97;3.33;;;3.70;99.90;;;;;;6198447;22;20020;-81
2022/02/10 22:28:23;;;;;;;13.00;3.83;;;3.70;99.90;;;;;;6191304;22;20522;-81
2022/02/10 22:30:59;;;;;;;11.73;3.27;;;3.70;99.90;;;;;;6214011;22;20052;-81
2022/02/10 22:33:47;;;;;;;15.70;3.43;;;3.60;99.90;;;;;;6218563;22;20051;-80
2022/02/10 22:36:16;;;;;;;9.53;2.90;;;3.60;99.90;;;;;;6215235;22;20020;-79
2022/02/10 22:38:42;;;;;;;12.27;3.40;;;3.60;99.90;;;;;;6243092;22;20020;-80
2022/02/10 22:41:12;;;;;;;12.40;3.57;;;3.60;99.90;;;;;;6191799;22;20085;-79
2022/02/10 22:43:47;;;;;;;8.88;2.75;;;3.50;99.90;;;;;;6215796;22;20456;-79
2022/02/10 22:46:14;;;;;;;9.33;2.90;;;3.50;99.90;;;;;;6217354;22;20019;-80
2022/02/10 22:48:43;;;;;;;13.10;3.60;;;3.50;99.90;;;;;;6241343;22;20141;-80
2022/02/10 22:51:09;;;;;;;12.17;3.10;;;3.50;99.90;;;;;;6217334;22;20440;-79
2022/02/10 22:53:38;;;;;;;12.13;3.07;;;3.50;99.90;;;;;;6193368;22;20094;-79
2022/02/10 22:56:10;;;;;;;11.63;3.30;;;3.50;99.90;;;;;;6168895;22;20027;-79
2022/02/10 22:58:40;;;;;;;8.70;2.60;;;3.40;99.90;;;;;;6189180;22;20110;-78
2022/02/10 23:01:15;;;;;;;11.63;3.60;;;3.30;99.90;;;;;;6188684;22;20058;-79
2022/02/10 23:03:41;;;;;;;11.30;3.50;;;3.30;99.90;;;;;;6188414;22;20015;-79
2022/02/10 23:06:09;;;;;;;12.03;3.30;;;3.30;99.90;;;;;;6212584;22;20493;-79
2022/02/10 23:08:39;;;;;;;13.47;3.93;;;3.30;99.90;;;;;;6189358;22;20011;-79
2022/02/10 23:11:06;;;;;;;12.30;4.18;;;3.20;99.90;;;;;;6191783;22;20027;-81
2022/02/10 23:13:34;;;;;;;15.17;4.87;;;3.20;99.90;;;;;;6193047;22;20520;-80
2022/02/10 23:16:02;;;;;;;11.40;4.40;;;3.30;99.90;;;;;;6218626;22;20102;-79
2022/02/10 23:18:31;;;;;;;16.27;5.37;;;3.30;99.90;;;;;;6242367;22;20444;-79
2022/02/10 23:20:59;;;;;;;14.83;5.53;;;3.30;99.90;;;;;;6242753;22;20016;-80
2022/02/10 23:23:28;;;;;;;14.53;5.63;;;3.30;99.90;;;;;;6194045;22;20015;-79
2022/02/10 23:25:55;;;;;;;16.17;5.80;;;3.40;99.90;;;;;;6219212;22;20098;-80
2022/02/10 23:28:24;;;;;;;18.23;5.77;;;3.40;99.90;;;;;;6194825;22;20016;-79
2022/02/10 23:30:53;;;;;;;13.60;5.97;;;3.40;99.90;;;;;;6218676;22;20090;-79
2022/02/10 23:33:27;;;;;;;18.90;6.00;;;3.50;99.90;;;;;;6218818;22;20012;-80
2022/02/10 23:38:39;;;;;;;13.13;5.10;;;3.50;99.90;;;;;;6243810;22;20034;-79
2022/02/10 23:43:54;;;;;;;15.00;6.03;;;3.40;99.90;;;;;;6244395;22;20490;-79
2022/02/10 23:46:21;;;;;;;13.07;5.57;;;3.40;99.90;;;;;;6220014;22;20091;-80
2022/02/10 23:48:48;;;;;;;14.87;5.30;;;3.40;99.90;;;;;;6219330;22;20023;-79
2022/02/10 23:51:14;;;;;;;16.97;5.57;;;3.40;99.90;;;;;;6218810;22;20016;-80
2022/02/10 23:53:40;;;;;;;16.07;6.10;;;3.40;99.90;;;;;;6218238;22;20027;-79
2022/02/10 23:56:11;;;;;;;16.87;5.53;;;3.40;99.90;;;;;;6244416;22;20340;-79
